Main page
METAR-TAF:

METAR-TAF

Airports :

Bahawalpur Airport

Bahawalpur, Pakistan

latitude: 29-20-53N, longitude: 71-43-04E, elevation: 119 m

METAR: missing

Time: 06:48 (01:48 UTC)

Forecast

The report was made 4 hours and 3 minutes ago, at 21:45 UTC
Forecast valid from 20 at 00 UTC to 20 at 18 UTC
Wind 5 kt from the Northeast
Visibility: 2500 m
Few clouds at a height of 12000 ft
Scattered clouds at a height of 12000 ft
smoke
Probability 30% :
Temporary
from 20 at 01 UTC to 20 at 05 UTC
Wind kt from the North
Visibility: 0600 m
Few clouds at a height of 12000 ft
fog
Temporary
from 20 at 06 UTC to 20 at 08 UTC
Wind kt from the North
Visibility: 1500 m
smoke

TAF: OPBW 192145Z 2000/2018 05005KT 2500 FU FEW120 SCT120 TN07/2001Z TX21/2010Z PROB30 TEMPO 2001/2005 00000KT 0600 FG FEW120 TEMPO 2006/2008 00000KT 1500 FU NSC

Weather observations and forecasts of more than 4000 airports (METAR and TAF reports).

The available stations are represented by yellow and red dots on the map.

Hover mouse over dot to see the name of the station.

Then click to see weather observations and forecasts.

To change the map : click on the green buttons with a black cross to zoom in, on the green button with a dash to zoom out, or on the green arrows for adjacent maps.


METAR-TAF: